sensor_id;sensor_type;location;lat;lon;timestamp;pressure;altitude;pressure_sealevel;temperature;humidity
64141;BME280;50436;50.618;7.932;2023-08-30T00:02:32;95902.94;;;13.10;100.00
64141;BME280;50436;50.618;7.932;2023-08-30T00:05:18;95909.34;;;13.15;100.00
64141;BME280;50436;50.618;7.932;2023-08-30T00:08:04;95903.72;;;13.21;100.00
64141;BME280;50436;50.618;7.932;2023-08-30T00:10:50;95906.13;;;13.18;100.00
64141;BME280;50436;50.618;7.932;2023-08-30T00:13:36;95907.53;;;13.10;100.00
64141;BME280;50436;50.618;7.932;2023-08-30T00:16:22;95910.03;;;12.91;100.00
64141;BME280;50436;50.618;7.932;2023-08-30T00:19:08;95909.78;;;12.82;100.00
64141;BME280;50436;50.618;7.932;2023-08-30T00:21:54;95912.25;;;12.79;100.00
64141;BME280;50436;50.618;7.932;2023-08-30T00:24:40;95916.75;;;12.83;100.00
64141;BME280;50436;50.618;7.932;2023-08-30T00:27:26;95916.75;;;12.89;100.00
64141;BME280;50436;50.618;7.932;2023-08-30T00:30:12;95906.34;;;12.77;100.00
64141;BME280;50436;50.618;7.932;2023-08-30T00:32:58;95912.69;;;12.91;100.00
64141;BME280;50436;50.618;7.932;2023-08-30T00:35:43;95905.41;;;13.02;100.00
64141;BME280;50436;50.618;7.932;2023-08-30T00:38:33;95907.25;;;13.11;100.00
64141;BME280;50436;50.618;7.932;2023-08-30T00:41:19;95907.47;;;13.20;100.00
64141;BME280;50436;50.618;7.932;2023-08-30T00:44:05;95896.19;;;13.18;100.00
64141;BME280;50436;50.618;7.932;2023-08-30T00:46:51;95908.81;;;13.18;100.00
64141;BME280;50436;50.618;7.932;2023-08-30T00:49:37;95900.25;;;13.16;100.00
64141;BME280;50436;50.618;7.932;2023-08-30T00:52:22;95901.09;;;13.06;100.00
64141;BME280;50436;50.618;7.932;2023-08-30T00:55:09;95900.25;;;13.10;100.00
64141;BME280;50436;50.618;7.932;2023-08-30T00:57:55;95890.63;;;13.04;100.00
64141;BME280;50436;50.618;7.932;2023-08-30T01:00:41;95892.81;;;12.97;100.00
64141;BME280;50436;50.618;7.932;2023-08-30T01:03:29;95887.69;;;13.01;100.00
64141;BME280;50436;50.618;7.932;2023-08-30T01:06:17;95883.13;;;13.01;100.00
64141;BME280;50436;50.618;7.932;2023-08-30T01:09:03;95877.19;;;13.04;100.00
64141;BME280;50436;50.618;7.932;2023-08-30T01:12:13;95888.19;;;13.08;100.00
64141;BME280;50436;50.618;7.932;2023-08-30T01:15:09;95879.44;;;12.92;100.00
64141;BME280;50436;50.618;7.932;2023-08-30T01:17:56;95874.28;;;13.01;100.00
64141;BME280;50436;50.618;7.932;2023-08-30T01:20:43;95876.75;;;12.92;100.00
64141;BME280;50436;50.618;7.932;2023-08-30T01:23:48;95879.66;;;12.96;100.00
64141;BME280;50436;50.618;7.932;2023-08-30T01:26:45;95867.53;;;13.03;100.00
64141;BME280;50436;50.618;7.932;2023-08-30T01:29:37;95871.31;;;13.02;100.00
64141;BME280;50436;50.618;7.932;2023-08-30T01:32:26;95871.31;;;13.02;100.00
64141;BME280;50436;50.618;7.932;2023-08-30T01:35:14;95870.75;;;13.05;100.00
64141;BME280;50436;50.618;7.932;2023-08-30T01:38:05;95873.47;;;13.00;100.00
64141;BME280;50436;50.618;7.932;2023-08-30T01:40:55;95864.34;;;13.01;100.00
64141;BME280;50436;50.618;7.932;2023-08-30T01:43:43;95853.03;;;12.99;100.00
64141;BME280;50436;50.618;7.932;2023-08-30T01:46:29;95849.03;;;13.02;100.00
64141;BME280;50436;50.618;7.932;2023-08-30T01:49:16;95858.41;;;12.99;100.00
64141;BME280;50436;50.618;7.932;2023-08-30T01:52:02;95849.31;;;12.95;100.00
64141;BME280;50436;50.618;7.932;2023-08-30T01:54:51;95857.59;;;13.04;100.00
64141;BME280;50436;50.618;7.932;2023-08-30T01:57:37;95846.03;;;13.03;100.00
64141;BME280;50436;50.618;7.932;2023-08-30T02:00:23;95841.25;;;12.95;100.00
64141;BME280;50436;50.618;7.932;2023-08-30T02:03:13;95844.97;;;12.99;100.00
64141;BME280;50436;50.618;7.932;2023-08-30T02:06:03;95848.75;;;12.98;100.00
64141;BME280;50436;50.618;7.932;2023-08-30T02:09:19;95845.63;;;12.86;100.00
64141;BME280;50436;50.618;7.932;2023-08-30T02:12:10;95841.88;;;12.82;100.00
64141;BME280;50436;50.618;7.932;2023-08-30T02:15:00;95838.59;;;12.90;100.00
64141;BME280;50436;50.618;7.932;2023-08-30T02:17:48;95833.50;;;12.89;100.00
64141;BME280;50436;50.618;7.932;2023-08-30T02:20:34;95835.97;;;12.85;100.00
64141;BME280;50436;50.618;7.932;2023-08-30T02:23:23;95840.91;;;12.63;100.00
64141;BME280;50436;50.618;7.932;2023-08-30T02:26:09;95836.34;;;12.63;100.00
64141;BME280;50436;50.618;7.932;2023-08-30T02:28:55;95838.97;;;12.68;100.00
64141;BME280;50436;50.618;7.932;2023-08-30T02:31:40;95835.19;;;12.74;100.00
64141;BME280;50436;50.618;7.932;2023-08-30T02:34:26;95844.34;;;12.73;100.00
64141;BME280;50436;50.618;7.932;2023-08-30T02:37:12;95842.16;;;12.75;100.00
64141;BME280;50436;50.618;7.932;2023-08-30T02:39:58;95844.59;;;12.77;100.00
64141;BME280;50436;50.618;7.932;2023-08-30T02:42:44;95842.75;;;12.67;100.00
64141;BME280;50436;50.618;7.932;2023-08-30T02:45:29;95835.03;;;12.55;100.00
64141;BME280;50436;50.618;7.932;2023-08-30T02:48:15;95837.84;;;12.25;100.00
64141;BME280;50436;50.618;7.932;2023-08-30T02:51:01;95842.47;;;12.04;100.00
64141;BME280;50436;50.618;7.932;2023-08-30T02:53:47;95842.97;;;12.11;100.00
64141;BME280;50436;50.618;7.932;2023-08-30T02:56:33;95842.19;;;12.11;100.00
64141;BME280;50436;50.618;7.932;2023-08-30T02:59:19;95847.53;;;12.11;100.00
64141;BME280;50436;50.618;7.932;2023-08-30T03:02:05;95846.47;;;12.17;100.00
64141;BME280;50436;50.618;7.932;2023-08-30T03:04:51;95842.69;;;12.18;100.00
64141;BME280;50436;50.618;7.932;2023-08-30T03:07:37;95834.13;;;12.16;100.00
64141;BME280;50436;50.618;7.932;2023-08-30T03:10:23;95841.59;;;12.24;100.00
64141;BME280;50436;50.618;7.932;2023-08-30T03:13:09;95827.91;;;12.25;100.00
64141;BME280;50436;50.618;7.932;2023-08-30T03:15:55;95828.72;;;12.26;100.00
64141;BME280;50436;50.618;7.932;2023-08-30T03:18:41;95834.09;;;12.21;100.00
64141;BME280;50436;50.618;7.932;2023-08-30T03:21:27;95836.47;;;12.27;100.00
64141;BME280;50436;50.618;7.932;2023-08-30T03:24:13;95834.34;;;12.30;100.00
64141;BME280;50436;50.618;7.932;2023-08-30T03:27:01;95833.09;;;11.96;100.00
64141;BME280;50436;50.618;7.932;2023-08-30T03:29:47;95836.28;;;12.04;100.00
64141;BME280;50436;50.618;7.932;2023-08-30T03:32:32;95822.91;;;11.98;100.00
64141;BME280;50436;50.618;7.932;2023-08-30T03:35:19;95836.34;;;11.83;100.00
64141;BME280;50436;50.618;7.932;2023-08-30T03:38:07;95825.59;;;11.78;100.00
64141;BME280;50436;50.618;7.932;2023-08-30T03:40:53;95834.19;;;11.75;100.00
64141;BME280;50436;50.618;7.932;2023-08-30T03:43:40;95825.88;;;11.66;100.00
64141;BME280;50436;50.618;7.932;2023-08-30T03:46:28;95830.44;;;11.66;100.00
64141;BME280;50436;50.618;7.932;2023-08-30T03:49:14;95813.59;;;11.60;100.00
64141;BME280;50436;50.618;7.932;2023-08-30T03:51:59;95814.13;;;11.42;100.00
64141;BME280;50436;50.618;7.932;2023-08-30T03:54:45;95822.97;;;11.27;100.00
64141;BME280;50436;50.618;7.932;2023-08-30T03:57:31;95836.34;;;11.32;100.00
64141;BME280;50436;50.618;7.932;2023-08-30T04:00:17;95835.81;;;11.20;100.00
64141;BME280;50436;50.618;7.932;2023-08-30T04:03:04;95838.50;;;11.35;100.00
64141;BME280;50436;50.618;7.932;2023-08-30T04:05:55;95829.41;;;11.47;100.00
64141;BME280;50436;50.618;7.932;2023-08-30T04:08:41;95832.03;;;11.67;100.00
64141;BME280;50436;50.618;7.932;2023-08-30T04:11:27;95834.44;;;11.73;100.00
64141;BME280;50436;50.618;7.932;2023-08-30T04:14:13;95835.81;;;11.81;100.00
64141;BME280;50436;50.618;7.932;2023-08-30T04:16:59;95828.81;;;11.90;100.00
64141;BME280;50436;50.618;7.932;2023-08-30T04:19:45;95831.22;;;11.97;100.00
64141;BME280;50436;50.618;7.932;2023-08-30T04:22:30;95824.28;;;11.91;100.00
64141;BME280;50436;50.618;7.932;2023-08-30T04:25:17;95823.72;;;11.99;100.00
64141;BME280;50436;50.618;7.932;2023-08-30T04:28:03;95824.47;;;12.15;100.00
64141;BME280;50436;50.618;7.932;2023-08-30T04:30:53;95823.94;;;12.13;100.00
64141;BME280;50436;50.618;7.932;2023-08-30T04:33:39;95823.41;;;12.16;100.00
64141;BME280;50436;50.618;7.932;2023-08-30T04:36:25;95823.38;;;12.21;100.00
64141;BME280;50436;50.618;7.932;2023-08-30T04:39:12;95816.69;;;12.18;100.00
64141;BME280;50436;50.618;7.932;2023-08-30T04:41:59;95815.91;;;12.08;100.00
64141;BME280;50436;50.618;7.932;2023-08-30T04:44:45;95817.03;;;11.91;100.00
64141;BME280;50436;50.618;7.932;2023-08-30T04:47:32;95811.16;;;11.84;100.00
64141;BME280;50436;50.618;7.932;2023-08-30T04:50:19;95811.41;;;11.88;100.00
64141;BME280;50436;50.618;7.932;2023-08-30T04:53:06;95816.25;;;11.91;100.00
64141;BME280;50436;50.618;7.932;2023-08-30T04:55:52;95814.34;;;11.81;100.00
64141;BME280;50436;50.618;7.932;2023-08-30T04:58:39;95813.28;;;11.72;100.00
64141;BME280;50436;50.618;7.932;2023-08-30T05:01:27;95817.34;;;11.54;100.00
64141;BME280;50436;50.618;7.932;2023-08-30T05:04:16;95821.88;;;11.33;100.00
64141;BME280;50436;50.618;7.932;2023-08-30T05:07:02;95824.56;;;11.38;100.00
64141;BME280;50436;50.618;7.932;2023-08-30T05:09:49;95817.06;;;11.35;100.00
64141;BME280;50436;50.618;7.932;2023-08-30T05:12:35;95813.88;;;11.23;100.00
64141;BME280;50436;50.618;7.932;2023-08-30T05:15:21;95811.69;;;11.20;100.00
64141;BME280;50436;50.618;7.932;2023-08-30T05:18:07;95811.19;;;11.18;100.00
64141;BME280;50436;50.618;7.932;2023-08-30T05:20:53;95810.09;;;10.99;100.00
64141;BME280;50436;50.618;7.932;2023-08-30T05:23:39;95808.50;;;10.98;100.00
64141;BME280;50436;50.618;7.932;2023-08-30T05:26:27;95806.63;;;11.03;100.00
64141;BME280;50436;50.618;7.932;2023-08-30T05:29:15;95816.00;;;11.11;100.00
64141;BME280;50436;50.618;7.932;2023-08-30T05:32:01;95799.41;;;11.14;100.00
64141;BME280;50436;50.618;7.932;2023-08-30T05:35:19;95802.63;;;11.21;100.00
64141;BME280;50436;50.618;7.932;2023-08-30T05:38:30;95802.59;;;11.26;100.00
64141;BME280;50436;50.618;7.932;2023-08-30T05:41:23;95797.25;;;11.31;100.00
64141;BME280;50436;50.618;7.932;2023-08-30T05:44:08;95803.16;;;11.33;100.00
64141;BME280;50436;50.618;7.932;2023-08-30T05:46:58;95806.59;;;11.49;100.00
64141;BME280;50436;50.618;7.932;2023-08-30T05:49:44;95809.03;;;11.61;100.00
64141;BME280;50436;50.618;7.932;2023-08-30T05:52:30;95805.78;;;11.59;100.00
64141;BME280;50436;50.618;7.932;2023-08-30T05:55:15;95804.72;;;11.65;100.00
64141;BME280;50436;50.618;7.932;2023-08-30T05:58:03;95798.03;;;11.67;100.00
64141;BME280;50436;50.618;7.932;2023-08-30T06:00:49;95790.50;;;11.64;100.00
64141;BME280;50436;50.618;7.932;2023-08-30T06:03:35;95799.59;;;11.73;100.00
64141;BME280;50436;50.618;7.932;2023-08-30T06:06:21;95799.88;;;11.77;100.00
64141;BME280;50436;50.618;7.932;2023-08-30T06:09:06;95791.56;;;11.73;100.00
64141;BME280;50436;50.618;7.932;2023-08-30T06:11:52;95799.59;;;11.73;100.00
64141;BME280;50436;50.618;7.932;2023-08-30T06:14:38;95798.56;;;11.85;100.00
64141;BME280;50436;50.618;7.932;2023-08-30T06:17:24;95794.78;;;11.70;100.00
64141;BME280;50436;50.618;7.932;2023-08-30T06:20:10;95796.16;;;11.83;100.00
64141;BME280;50436;50.618;7.932;2023-08-30T06:22:58;95798.56;;;11.85;100.00
64141;BME280;50436;50.618;7.932;2023-08-30T06:25:44;95802.00;;;11.90;100.00
64141;BME280;50436;50.618;7.932;2023-08-30T06:28:33;95796.13;;;11.88;100.00
64141;BME280;50436;50.618;7.932;2023-08-30T06:31:19;95794.50;;;11.87;100.00
64141;BME280;50436;50.618;7.932;2023-08-30T06:34:05;95796.13;;;11.93;100.00
64141;BME280;50436;50.618;7.932;2023-08-30T06:36:54;95789.44;;;11.91;100.00
64141;BME280;50436;50.618;7.932;2023-08-30T06:39:40;95793.44;;;11.98;100.00
64141;BME280;50436;50.618;7.932;2023-08-30T06:42:26;95796.63;;;12.01;100.00
64141;BME280;50436;50.618;7.932;2023-08-30T06:45:12;95790.97;;;12.07;100.00
64141;BME280;50436;50.618;7.932;2023-08-30T06:47:58;95792.00;;;12.16;100.00
64141;BME280;50436;50.618;7.932;2023-08-30T06:50:44;95789.63;;;12.15;100.00
64141;BME280;50436;50.618;7.932;2023-08-30T06:53:30;95788.50;;;12.21;100.00
64141;BME280;50436;50.618;7.932;2023-08-30T06:56:15;95788.78;;;12.19;100.00
64141;BME280;50436;50.618;7.932;2023-08-30T06:59:01;95786.31;;;12.33;100.00
64141;BME280;50436;50.618;7.932;2023-08-30T07:01:47;95784.94;;;12.41;100.00
64141;BME280;50436;50.618;7.932;2023-08-30T07:04:33;95775.88;;;12.21;100.00
64141;BME280;50436;50.618;7.932;2023-08-30T07:07:19;95775.06;;;12.26;100.00
64141;BME280;50436;50.618;7.932;2023-08-30T07:10:05;95781.44;;;12.40;100.00
64141;BME280;50436;50.618;7.932;2023-08-30T07:12:51;95773.91;;;12.47;100.00
64141;BME280;50436;50.618;7.932;2023-08-30T07:15:41;95776.28;;;12.54;100.00
64141;BME280;50436;50.618;7.932;2023-08-30T07:18:26;95768.22;;;12.54;100.00
64141;BME280;50436;50.618;7.932;2023-08-30T07:21:12;95771.41;;;12.61;100.00
64141;BME280;50436;50.618;7.932;2023-08-30T07:23:58;95764.81;;;12.82;100.00
64141;BME280;50436;50.618;7.932;2023-08-30T07:26:44;95763.19;;;12.87;100.00
64141;BME280;50436;50.618;7.932;2023-08-30T07:29:30;95764.59;;;12.79;100.00
64141;BME280;50436;50.618;7.932;2023-08-30T07:32:16;95754.94;;;12.73;100.00
64141;BME280;50436;50.618;7.932;2023-08-30T07:35:02;95764.00;;;12.87;100.00
64141;BME280;50436;50.618;7.932;2023-08-30T07:37:48;95765.66;;;12.78;100.00
64141;BME280;50436;50.618;7.932;2023-08-30T07:40:34;95769.38;;;12.82;100.00
64141;BME280;50436;50.618;7.932;2023-08-30T07:43:20;95764.00;;;12.82;100.00
64141;BME280;50436;50.618;7.932;2023-08-30T07:46:06;95762.94;;;12.83;100.00
64141;BME280;50436;50.618;7.932;2023-08-30T07:48:52;95748.91;;;12.91;100.00
64141;BME280;50436;50.618;7.932;2023-08-30T07:51:37;95753.25;;;12.87;100.00
64141;BME280;50436;50.618;7.932;2023-08-30T07:54:23;95748.38;;;12.94;100.00
64141;BME280;50436;50.618;7.932;2023-08-30T07:57:09;95751.00;;;12.99;100.00
64141;BME280;50436;50.618;7.932;2023-08-30T07:59:55;95756.25;;;13.20;100.00
64141;BME280;50436;50.618;7.932;2023-08-30T08:02:41;95751.25;;;13.37;100.00
64141;BME280;50436;50.618;7.932;2023-08-30T08:05:27;95746.94;;;13.41;100.00
64141;BME280;50436;50.618;7.932;2023-08-30T08:08:13;95746.28;;;13.54;100.00
64141;BME280;50436;50.618;7.932;2023-08-30T08:11:00;95746.38;;;13.68;100.00
64141;BME280;50436;50.618;7.932;2023-08-30T08:13:45;95744.66;;;13.77;100.00
64141;BME280;50436;50.618;7.932;2023-08-30T08:16:31;95744.78;;;13.91;100.00
64141;BME280;50436;50.618;7.932;2023-08-30T08:19:17;95760.75;;;14.06;100.00
64141;BME280;50436;50.618;7.932;2023-08-30T08:22:03;95761.59;;;14.26;100.00
64141;BME280;50436;50.618;7.932;2023-08-30T08:24:53;95751.75;;;14.40;100.00
64141;BME280;50436;50.618;7.932;2023-08-30T08:27:42;95749.66;;;14.32;100.00
64141;BME280;50436;50.618;7.932;2023-08-30T08:30:28;95755.50;;;14.39;100.00
64141;BME280;50436;50.618;7.932;2023-08-30T08:33:13;95743.13;;;14.38;100.00
64141;BME280;50436;50.618;7.932;2023-08-30T08:35:59;95742.44;;;14.51;100.00
64141;BME280;50436;50.618;7.932;2023-08-30T08:38:45;95743.63;;;14.64;100.00
64141;BME280;50436;50.618;7.932;2023-08-30T08:41:41;95747.56;;;14.71;100.00
64141;BME280;50436;50.618;7.932;2023-08-30T08:44:31;95744.41;;;15.02;100.00
64141;BME280;50436;50.618;7.932;2023-08-30T08:47:19;95742.72;;;15.06;100.00
64141;BME280;50436;50.618;7.932;2023-08-30T08:50:06;95744.56;;;15.24;100.00
64141;BME280;50436;50.618;7.932;2023-08-30T08:52:52;95738.47;;;15.19;100.00
64141;BME280;50436;50.618;7.932;2023-08-30T08:55:39;95740.63;;;15.36;100.00
64141;BME280;50436;50.618;7.932;2023-08-30T08:58:26;95735.59;;;15.29;100.00
64141;BME280;50436;50.618;7.932;2023-08-30T09:01:13;95739.25;;;15.52;100.00
64141;BME280;50436;50.618;7.932;2023-08-30T09:03:59;95746.72;;;15.55;100.00
64141;BME280;50436;50.618;7.932;2023-08-30T09:06:45;95739.56;;;15.50;100.00
64141;BME280;50436;50.618;7.932;2023-08-30T09:09:31;95736.47;;;15.57;100.00
64141;BME280;50436;50.618;7.932;2023-08-30T09:12:16;95749.22;;;15.84;100.00
64141;BME280;50436;50.618;7.932;2023-08-30T09:15:02;95743.81;;;15.98;100.00
64141;BME280;50436;50.618;7.932;2023-08-30T09:17:49;95738.41;;;16.25;100.00
64141;BME280;50436;50.618;7.932;2023-08-30T09:20:36;95745.69;;;16.52;100.00
64141;BME280;50436;50.618;7.932;2023-08-30T09:23:22;95744.31;;;17.13;100.00
64141;BME280;50436;50.618;7.932;2023-08-30T09:26:10;95745.97;;;17.45;100.00
64141;BME280;50436;50.618;7.932;2023-08-30T09:28:55;95745.34;;;17.48;100.00
64141;BME280;50436;50.618;7.932;2023-08-30T09:31:41;95730.47;;;17.60;100.00
64141;BME280;50436;50.618;7.932;2023-08-30T09:34:27;95732.88;;;17.16;100.00
64141;BME280;50436;50.618;7.932;2023-08-30T09:37:23;95730.84;;;16.77;100.00
64141;BME280;50436;50.618;7.932;2023-08-30T09:40:09;95736.88;;;16.47;100.00
64141;BME280;50436;50.618;7.932;2023-08-30T09:42:54;95741.56;;;16.55;100.00
64141;BME280;50436;50.618;7.932;2023-08-30T09:45:43;95741.19;;;16.48;100.00
64141;BME280;50436;50.618;7.932;2023-08-30T09:48:29;95737.63;;;15.97;100.00
64141;BME280;50436;50.618;7.932;2023-08-30T09:51:16;95730.91;;;15.95;100.00
64141;BME280;50436;50.618;7.932;2023-08-30T09:54:04;95725.44;;;16.77;100.00
64141;BME280;50436;50.618;7.932;2023-08-30T09:56:50;95725.25;;;17.41;100.00
64141;BME280;50436;50.618;7.932;2023-08-30T09:59:39;95722.31;;;17.82;100.00
64141;BME280;50436;50.618;7.932;2023-08-30T10:02:25;95724.25;;;17.90;100.00
64141;BME280;50436;50.618;7.932;2023-08-30T10:05:11;95712.44;;;17.86;100.00
64141;BME280;50436;50.618;7.932;2023-08-30T10:07:58;95713.66;;;18.68;100.00
64141;BME280;50436;50.618;7.932;2023-08-30T10:10:45;95703.94;;;18.76;100.00
64141;BME280;50436;50.618;7.932;2023-08-30T10:13:30;95701.97;;;19.19;100.00
64141;BME280;50436;50.618;7.932;2023-08-30T10:16:19;95708.34;;;19.24;100.00
64141;BME280;50436;50.618;7.932;2023-08-30T10:19:11;95709.44;;;18.53;100.00
64141;BME280;50436;50.618;7.932;2023-08-30T10:22:06;95695.66;;;18.06;100.00
64141;BME280;50436;50.618;7.932;2023-08-30T10:24:59;95698.66;;;18.05;100.00
64141;BME280;50436;50.618;7.932;2023-08-30T10:27:48;95684.06;;;18.23;100.00
64141;BME280;50436;50.618;7.932;2023-08-30T10:30:35;95684.09;;;19.27;100.00
64141;BME280;50436;50.618;7.932;2023-08-30T10:33:21;95692.28;;;19.01;100.00
64141;BME280;50436;50.618;7.932;2023-08-30T10:36:11;95692.72;;;19.20;100.00
64141;BME280;50436;50.618;7.932;2023-08-30T10:38:57;95688.72;;;18.57;100.00
64141;BME280;50436;50.618;7.932;2023-08-30T10:42:12;95675.91;;;19.62;100.00
64141;BME280;50436;50.618;7.932;2023-08-30T10:45:05;95678.97;;;20.91;100.00
64141;BME280;50436;50.618;7.932;2023-08-30T10:47:55;95674.16;;;21.75;94.25
64141;BME280;50436;50.618;7.932;2023-08-30T10:50:42;95682.50;;;22.92;88.32
64141;BME280;50436;50.618;7.932;2023-08-30T10:53:31;95675.88;;;21.79;92.62
64141;BME280;50436;50.618;7.932;2023-08-30T10:56:17;95663.63;;;23.43;85.57
64141;BME280;50436;50.618;7.932;2023-08-30T10:59:02;95673.06;;;22.77;83.28
64141;BME280;50436;50.618;7.932;2023-08-30T11:01:50;95663.34;;;23.92;75.25
64141;BME280;50436;50.618;7.932;2023-08-30T11:04:39;95647.53;;;25.45;57.01
64141;BME280;50436;50.618;7.932;2023-08-30T11:07:26;95647.25;;;26.45;53.39
64141;BME280;50436;50.618;7.932;2023-08-30T11:10:12;95665.00;;;25.17;50.27
64141;BME280;50436;50.618;7.932;2023-08-30T11:12:58;95657.19;;;25.81;49.33
64141;BME280;50436;50.618;7.932;2023-08-30T11:15:44;95663.41;;;26.01;46.76
64141;BME280;50436;50.618;7.932;2023-08-30T11:18:30;95654.47;;;26.87;43.35
64141;BME280;50436;50.618;7.932;2023-08-30T11:21:16;95645.28;;;30.23;37.30
64141;BME280;50436;50.618;7.932;2023-08-30T11:24:06;95649.97;;;27.35;40.80
64141;BME280;50436;50.618;7.932;2023-08-30T11:26:54;95652.16;;;29.18;38.58
64141;BME280;50436;50.618;7.932;2023-08-30T11:29:40;95660.38;;;26.59;44.65
64141;BME280;50436;50.618;7.932;2023-08-30T11:32:26;95645.94;;;26.13;51.68
64141;BME280;50436;50.618;7.932;2023-08-30T11:35:11;95646.78;;;23.84;60.17
64141;BME280;50436;50.618;7.932;2023-08-30T11:37:57;95667.72;;;23.21;66.19
64141;BME280;50436;50.618;7.932;2023-08-30T11:40:44;95644.66;;;24.60;57.76
64141;BME280;50436;50.618;7.932;2023-08-30T11:43:31;95641.22;;;24.12;58.25
64141;BME280;50436;50.618;7.932;2023-08-30T11:46:17;95647.66;;;24.74;55.56
64141;BME280;50436;50.618;7.932;2023-08-30T11:49:04;95650.28;;;21.35;84.91
64141;BME280;50436;50.618;7.932;2023-08-30T11:51:50;95656.13;;;19.44;99.63
64141;BME280;50436;50.618;7.932;2023-08-30T11:54:38;95669.75;;;18.40;100.00
64141;BME280;50436;50.618;7.932;2023-08-30T11:57:24;95660.38;;;18.89;100.00
64141;BME280;50436;50.618;7.932;2023-08-30T12:00:12;95650.22;;;19.89;100.00
64141;BME280;50436;50.618;7.932;2023-08-30T12:02:58;95648.47;;;19.84;100.00
64141;BME280;50436;50.618;7.932;2023-08-30T12:05:45;95645.03;;;19.19;100.00
64141;BME280;50436;50.618;7.932;2023-08-30T12:08:31;95665.66;;;18.95;100.00
64141;BME280;50436;50.618;7.932;2023-08-30T12:11:18;95645.84;;;19.03;100.00
64141;BME280;50436;50.618;7.932;2023-08-30T12:14:07;95635.00;;;19.03;100.00
64141;BME280;50436;50.618;7.932;2023-08-30T12:16:53;95647.47;;;18.86;100.00
64141;BME280;50436;50.618;7.932;2023-08-30T12:19:39;95642.25;;;19.45;100.00
64141;BME280;50436;50.618;7.932;2023-08-30T12:22:40;95635.06;;;20.17;100.00
64141;BME280;50436;50.618;7.932;2023-08-30T12:25:26;95637.25;;;19.65;100.00
64141;BME280;50436;50.618;7.932;2023-08-30T12:28:12;95650.19;;;18.60;100.00
64141;BME280;50436;50.618;7.932;2023-08-30T12:30:58;95657.41;;;17.60;100.00
64141;BME280;50436;50.618;7.932;2023-08-30T12:33:44;95663.81;;;17.33;100.00
64141;BME280;50436;50.618;7.932;2023-08-30T12:36:30;95655.56;;;17.38;100.00
64141;BME280;50436;50.618;7.932;2023-08-30T12:39:17;95653.81;;;18.38;100.00
64141;BME280;50436;50.618;7.932;2023-08-30T12:42:03;95646.03;;;18.89;100.00
64141;BME280;50436;50.618;7.932;2023-08-30T12:44:49;95633.25;;;20.21;100.00
64141;BME280;50436;50.618;7.932;2023-08-30T12:47:35;95637.78;;;19.88;100.00
64141;BME280;50436;50.618;7.932;2023-08-30T12:50:21;95636.19;;;19.40;100.00
64141;BME280;50436;50.618;7.932;2023-08-30T12:53:08;95639.44;;;18.21;100.00
64141;BME280;50436;50.618;7.932;2023-08-30T12:55:54;95622.44;;;18.81;100.00
64141;BME280;50436;50.618;7.932;2023-08-30T12:58:40;95623.84;;;19.04;100.00
64141;BME280;50436;50.618;7.932;2023-08-30T13:01:25;95629.28;;;18.96;100.00
64141;BME280;50436;50.618;7.932;2023-08-30T13:04:11;95618.44;;;19.51;100.00
64141;BME280;50436;50.618;7.932;2023-08-30T13:06:57;95621.59;;;20.00;100.00
64141;BME280;50436;50.618;7.932;2023-08-30T13:09:43;95626.88;;;19.96;100.00
64141;BME280;50436;50.618;7.932;2023-08-30T13:12:29;95636.47;;;18.74;100.00
64141;BME280;50436;50.618;7.932;2023-08-30T13:15:15;95616.66;;;19.17;100.00
64141;BME280;50436;50.618;7.932;2023-08-30T13:18:00;95604.84;;;22.09;100.00
64141;BME280;50436;50.618;7.932;2023-08-30T13:20:46;95601.53;;;23.24;92.98
64141;BME280;50436;50.618;7.932;2023-08-30T13:23:32;95610.50;;;22.28;94.46
64141;BME280;50436;50.618;7.932;2023-08-30T13:26:20;95617.38;;;20.11;100.00
64141;BME280;50436;50.618;7.932;2023-08-30T13:29:06;95601.63;;;21.46;100.00
64141;BME280;50436;50.618;7.932;2023-08-30T13:31:51;95592.50;;;24.34;84.92
64141;BME280;50436;50.618;7.932;2023-08-30T13:34:38;95590.19;;;26.88;67.36
64141;BME280;50436;50.618;7.932;2023-08-30T13:37:24;95593.78;;;23.57;90.22
64141;BME280;50436;50.618;7.932;2023-08-30T13:40:10;95603.00;;;22.01;94.17
64141;BME280;50436;50.618;7.932;2023-08-30T13:42:57;95588.97;;;23.35;92.18
64141;BME280;50436;50.618;7.932;2023-08-30T13:45:45;95596.03;;;22.52;92.42
64141;BME280;50436;50.618;7.932;2023-08-30T13:48:33;95596.66;;;21.84;98.87
64141;BME280;50436;50.618;7.932;2023-08-30T13:51:23;95587.88;;;23.40;92.73
64141;BME280;50436;50.618;7.932;2023-08-30T13:54:08;95585.31;;;22.19;96.57
64141;BME280;50436;50.618;7.932;2023-08-30T13:56:57;95592.81;;;22.10;96.47
64141;BME280;50436;50.618;7.932;2023-08-30T13:59:43;95586.78;;;20.98;100.00
64141;BME280;50436;50.618;7.932;2023-08-30T14:02:29;95584.00;;;19.81;100.00
64141;BME280;50436;50.618;7.932;2023-08-30T14:05:15;95581.38;;;19.17;100.00
64141;BME280;50436;50.618;7.932;2023-08-30T14:08:01;95585.06;;;19.12;100.00
64141;BME280;50436;50.618;7.932;2023-08-30T14:10:47;95587.31;;;19.10;100.00
64141;BME280;50436;50.618;7.932;2023-08-30T14:13:33;95596.78;;;18.18;100.00
64141;BME280;50436;50.618;7.932;2023-08-30T14:16:18;95587.56;;;18.53;100.00
64141;BME280;50436;50.618;7.932;2023-08-30T14:19:04;95584.97;;;18.05;100.00
64141;BME280;50436;50.618;7.932;2023-08-30T14:21:51;95588.63;;;17.83;100.00
64141;BME280;50436;50.618;7.932;2023-08-30T14:24:40;95587.69;;;17.48;100.00
64141;BME280;50436;50.618;7.932;2023-08-30T14:27:26;95590.09;;;17.98;100.00
64141;BME280;50436;50.618;7.932;2023-08-30T14:30:12;95585.41;;;17.81;100.00
64141;BME280;50436;50.618;7.932;2023-08-30T14:32:58;95574.19;;;17.65;100.00
64141;BME280;50436;50.618;7.932;2023-08-30T14:35:44;95588.38;;;17.22;100.00